Time;durP1;ratioP1;P1;durP2;ratioP2;P2;SDS_P1;SDS_P2;PMS_P1;PMS_P2;Temp;Humidity;BMP_temperature;BMP_pressure;BME280_temperature;BME280_humidity;BME280_pressure;Samples;Min_cycle;Max_cycle;Signal;HPM_P1;HPM_P2
2022/01/19 00:02:17;;;;;;;50.30;26.95;;;4.40;99.90;;;;;;5075840;28;20051;-77
2022/01/19 00:04:43;;;;;;;44.53;25.50;;;4.40;99.90;;;;;;5093353;28;20123;-76
2022/01/19 00:07:09;;;;;;;49.72;27.17;;;4.40;99.90;;;;;;5094352;28;20115;-77
2022/01/19 00:09:35;;;;;;;58.03;29.30;;;4.30;99.90;;;;;;5058925;28;20048;-77
2022/01/19 00:12:00;;;;;;;56.15;26.65;;;4.40;99.90;;;;;;5094213;28;20487;-77
2022/01/19 00:14:27;;;;;;;51.45;31.23;;;4.40;99.90;;;;;;5093768;28;20126;-77
2022/01/19 00:16:53;;;;;;;57.85;29.17;;;4.40;99.90;;;;;;5094121;28;20409;-77
2022/01/19 00:19:18;;;;;;;49.10;25.88;;;4.50;99.90;;;;;;5092750;28;20046;-78
2022/01/19 00:21:44;;;;;;;55.72;30.85;;;4.40;99.90;;;;;;5094400;28;20040;-77
2022/01/19 00:24:10;;;;;;;75.28;27.70;;;4.30;99.90;;;;;;5076940;28;20036;-77
2022/01/19 00:26:36;;;;;;;43.05;24.75;;;4.30;99.90;;;;;;5093784;28;20405;-77
2022/01/19 00:29:02;;;;;;;48.97;24.67;;;4.40;99.90;;;;;;5094314;28;20036;-77
2022/01/19 00:31:27;;;;;;;54.42;24.88;;;4.30;99.90;;;;;;5093727;28;20046;-78
2022/01/19 00:33:53;;;;;;;62.38;29.58;;;4.30;99.90;;;;;;5092776;28;20154;-77
2022/01/19 00:36:18;;;;;;;53.20;29.80;;;4.40;99.90;;;;;;5075196;28;20116;-77
2022/01/19 00:38:44;;;;;;;53.05;28.73;;;4.40;99.90;;;;;;5075511;28;20040;-76
2022/01/19 00:41:10;;;;;;;63.97;31.13;;;4.40;99.90;;;;;;5094057;28;20036;-77
2022/01/19 00:43:37;;;;;;;59.35;32.42;;;4.30;99.90;;;;;;5093531;28;20181;-77
2022/01/19 00:46:04;;;;;;;51.22;27.88;;;4.30;99.90;;;;;;5093508;28;20465;-77
2022/01/19 00:48:30;;;;;;;59.38;33.60;;;4.40;99.90;;;;;;5092884;28;20028;-78
2022/01/19 00:50:57;;;;;;;57.95;29.42;;;4.40;99.90;;;;;;5093338;28;20040;-78
2022/01/19 00:53:23;;;;;;;57.13;28.70;;;4.30;99.90;;;;;;5075152;28;20119;-78
2022/01/19 00:55:49;;;;;;;56.75;27.60;;;4.30;99.90;;;;;;5093557;28;20122;-78
2022/01/19 00:58:15;;;;;;;60.75;26.25;;;4.30;99.90;;;;;;5093204;28;20063;-77
2022/01/19 01:00:41;;;;;;;66.57;31.60;;;4.30;99.90;;;;;;5093861;28;20136;-78
2022/01/19 01:03:06;;;;;;;52.03;26.25;;;4.30;99.90;;;;;;5093278;28;20031;-76
2022/01/19 01:05:32;;;;;;;62.40;28.15;;;4.30;99.90;;;;;;5092169;28;20039;-78
2022/01/19 01:07:58;;;;;;;62.63;33.88;;;4.30;99.90;;;;;;5093620;28;20051;-78
2022/01/19 01:10:24;;;;;;;61.78;33.58;;;4.20;99.90;;;;;;5073456;28;20486;-77
2022/01/19 01:12:52;;;;;;;79.15;36.47;;;4.20;99.90;;;;;;5071858;28;20048;-78
2022/01/19 01:20:36;;;;;;;79.43;37.10;;;4.30;99.90;;;;;;5089077;28;20124;-78
2022/01/19 01:23:05;;;;;;;78.93;38.03;;;4.20;99.90;;;;;;5090150;28;20044;-78
2022/01/19 01:25:31;;;;;;;69.88;35.80;;;4.10;99.90;;;;;;5071946;28;20510;-78
2022/01/19 01:27:56;;;;;;;89.38;37.58;;;4.20;99.90;;;;;;5090138;28;20048;-77
2022/01/19 01:30:22;;;;;;;93.13;37.78;;;4.10;99.90;;;;;;5071450;28;20401;-76
2022/01/19 01:32:48;;;;;;;79.55;37.65;;;4.10;99.90;;;;;;5089981;28;20551;-78
2022/01/19 01:35:14;;;;;;;88.30;36.25;;;4.10;99.90;;;;;;5070461;28;20071;-73
2022/01/19 01:37:39;;;;;;;71.40;38.38;;;4.20;99.90;;;;;;5090127;28;20039;-78
2022/01/19 01:40:08;;;;;;;78.93;36.95;;;4.20;99.90;;;;;;5089908;28;20071;-78
2022/01/19 01:42:34;;;;;;;75.45;39.20;;;4.20;99.90;;;;;;5089252;28;20115;-77
2022/01/19 01:45:01;;;;;;;78.90;38.28;;;4.10;99.90;;;;;;5089299;28;20395;-77
2022/01/19 01:47:28;;;;;;;72.63;36.85;;;4.10;99.90;;;;;;5089527;28;20052;-78
2022/01/19 01:55:11;;;;;;;63.65;35.90;;;4.00;99.90;;;;;;5089250;28;20048;-78
2022/01/19 01:57:37;;;;;;;72.90;38.47;;;4.10;99.90;;;;;;5089445;28;20347;-78
2022/01/19 02:00:08;;;;;;;80.43;37.47;;;4.10;99.90;;;;;;5089384;28;20052;-76
2022/01/19 02:02:33;;;;;;;67.65;33.67;;;4.10;99.90;;;;;;5088972;28;20643;-76
2022/01/19 02:05:00;;;;;;;72.22;41.25;;;4.10;99.90;;;;;;5088419;28;20044;-76
2022/01/19 02:07:47;;;;;;;71.43;37.53;;;4.10;99.90;;;;;;5071611;28;20070;-78
2022/01/19 02:15:54;;;;;;;79.97;38.72;;;4.10;99.90;;;;;;5089281;28;20084;-78
2022/01/19 02:23:51;;;;;;;75.15;41.67;;;4.20;99.90;;;;;;5088665;28;20044;-76
2022/01/19 02:26:26;;;;;;;87.28;42.08;;;4.20;99.90;;;;;;5088401;28;20040;-78
2022/01/19 02:42:39;;;;;;;88.72;42.95;;;4.40;99.90;;;;;;5070530;28;20488;-77
2022/01/19 02:49:58;;;;;;;87.05;46.00;;;4.30;99.90;;;;;;5087549;28;20174;-79
2022/01/19 02:52:25;;;;;;;91.43;44.47;;;4.30;99.90;;;;;;5088395;28;20448;-77
2022/01/19 02:54:51;;;;;;;92.72;45.15;;;4.30;99.90;;;;;;5070443;28;20035;-77
2022/01/19 02:57:23;;;;;;;81.25;40.97;;;4.30;99.90;;;;;;5087975;28;20044;-77
2022/01/19 03:10:13;;;;;;;87.03;43.92;;;4.20;99.90;;;;;;5088223;28;20052;-77
2022/01/19 03:12:38;;;;;;;88.80;41.30;;;4.20;99.90;;;;;;5088338;28;20036;-78
2022/01/19 03:15:06;;;;;;;97.72;42.60;;;4.20;99.90;;;;;;5088034;28;20540;-78
2022/01/19 03:17:31;;;;;;;100.05;46.88;;;4.30;99.90;;;;;;5069605;28;20044;-78
2022/01/19 03:19:57;;;;;;;95.55;43.97;;;4.20;99.90;;;;;;5069298;28;20117;-77
2022/01/19 03:22:30;;;;;;;82.47;36.67;;;4.20;99.90;;;;;;5069408;28;20048;-77
2022/01/19 03:24:55;;;;;;;93.88;39.17;;;4.10;99.90;;;;;;5087689;28;20131;-78
2022/01/19 03:27:21;;;;;;;95.35;39.15;;;4.10;99.90;;;;;;5087793;28;20119;-77
2022/01/19 03:29:46;;;;;;;87.35;35.13;;;4.10;99.90;;;;;;5069788;28;20123;-76
2022/01/19 03:32:12;;;;;;;95.70;39.60;;;4.10;99.90;;;;;;5070069;28;20062;-78
2022/01/19 03:34:39;;;;;;;110.22;42.13;;;4.10;99.90;;;;;;5085952;28;20036;-78
2022/01/19 03:37:05;;;;;;;96.95;38.20;;;4.00;99.90;;;;;;5069841;28;20047;-77
2022/01/19 03:39:32;;;;;;;91.97;37.80;;;4.00;99.90;;;;;;5086986;28;20032;-78
2022/01/19 03:41:57;;;;;;;96.95;37.55;;;4.00;99.90;;;;;;5069640;28;20115;-79
2022/01/19 03:44:23;;;;;;;86.53;36.92;;;4.00;99.90;;;;;;5087256;28;20111;-76
2022/01/19 03:47:00;;;;;;;90.47;38.15;;;3.90;99.90;;;;;;5087699;28;20537;-77
2022/01/19 03:49:29;;;;;;;85.70;35.85;;;3.90;99.90;;;;;;5086945;28;20097;-79
2022/01/19 03:52:02;;;;;;;75.70;35.05;;;3.90;99.90;;;;;;5087756;28;20101;-78
2022/01/19 03:54:34;;;;;;;100.07;41.28;;;3.90;99.90;;;;;;5087353;28;20628;-79
2022/01/19 03:56:59;;;;;;;88.88;35.97;;;3.90;99.90;;;;;;5087394;28;20052;-78
2022/01/19 03:59:25;;;;;;;93.53;36.25;;;3.90;99.90;;;;;;5087560;28;20137;-77
2022/01/19 04:01:52;;;;;;;78.30;33.83;;;4.00;99.90;;;;;;5087549;28;20580;-78
2022/01/19 04:06:58;;;;;;;72.40;32.65;;;3.90;99.90;;;;;;5087399;28;20101;-77
2022/01/19 04:09:25;;;;;;;62.28;27.90;;;3.60;99.90;;;;;;5088338;28;20425;-77
2022/01/19 04:11:51;;;;;;;52.58;27.00;;;3.60;99.90;;;;;;5088917;28;20040;-78
2022/01/19 04:14:23;;;;;;;71.22;28.48;;;3.50;99.90;;;;;;5087255;28;20059;-78
2022/01/19 04:16:50;;;;;;;74.07;29.75;;;3.50;99.90;;;;;;5068915;28;20508;-76
2022/01/19 04:21:44;;;;;;;79.65;30.45;;;3.60;99.90;;;;;;5087272;28;20463;-75
2022/01/19 04:24:09;;;;;;;70.82;31.27;;;3.60;99.90;;;;;;5087499;28;20044;-76
2022/01/19 04:26:35;;;;;;;67.95;30.02;;;3.60;99.90;;;;;;5086685;28;20123;-77
2022/01/19 04:29:00;;;;;;;68.90;29.63;;;3.60;99.90;;;;;;5087044;28;20347;-77
2022/01/19 04:31:26;;;;;;;67.72;30.40;;;3.50;99.90;;;;;;5086635;28;20048;-76
2022/01/19 04:33:52;;;;;;;69.45;28.98;;;3.60;99.90;;;;;;5086176;28;20036;-77
2022/01/19 04:36:30;;;;;;;71.00;31.65;;;3.50;99.90;;;;;;5086740;28;20044;-77
2022/01/19 04:44:39;;;;;;;74.25;34.35;;;3.50;99.90;;;;;;5069079;28;20486;-77
2022/01/19 04:47:39;;;;;;;76.18;30.60;;;3.60;99.90;;;;;;5089503;28;20052;-78
2022/01/19 05:06:13;;;;;;;64.30;30.25;;;3.60;99.90;;;;;;5072856;28;20060;-77
2022/01/19 05:08:51;;;;;;;68.40;28.27;;;3.50;99.90;;;;;;5090362;28;20055;-77
2022/01/19 05:14:01;;;;;;;61.20;26.83;;;3.60;99.90;;;;;;5090664;28;20079;-78
2022/01/19 05:16:27;;;;;;;61.53;27.30;;;3.50;99.90;;;;;;5090365;28;20071;-77
2022/01/19 05:18:53;;;;;;;56.10;28.95;;;3.60;99.90;;;;;;5089569;28;20245;-78
2022/01/19 05:21:20;;;;;;;60.58;29.20;;;3.50;99.90;;;;;;5071909;28;20046;-77
2022/01/19 05:23:46;;;;;;;66.47;28.00;;;3.60;99.90;;;;;;5072084;28;20048;-77
2022/01/19 05:26:11;;;;;;;63.80;31.90;;;3.50;99.90;;;;;;5090498;28;20060;-76
2022/01/19 05:28:37;;;;;;;65.35;30.23;;;3.50;99.90;;;;;;5089814;28;20040;-77
2022/01/19 05:31:03;;;;;;;59.25;31.65;;;3.50;99.90;;;;;;5090110;28;20036;-77
2022/01/19 05:33:29;;;;;;;63.13;27.20;;;3.60;99.90;;;;;;5088889;28;20727;-78
2022/01/19 05:35:55;;;;;;;56.08;28.13;;;3.50;99.90;;;;;;5089697;28;20599;-77
2022/01/19 05:38:21;;;;;;;58.95;27.90;;;3.60;99.90;;;;;;5071759;28;20039;-77
2022/01/19 05:40:46;;;;;;;57.60;27.27;;;3.60;99.90;;;;;;5089748;28;20043;-77
2022/01/19 05:43:12;;;;;;;57.50;28.58;;;3.60;99.90;;;;;;5089903;28;20040;-78
2022/01/19 05:45:38;;;;;;;52.47;27.08;;;3.60;99.90;;;;;;5089120;28;20052;-77
2022/01/19 05:48:07;;;;;;;54.70;27.30;;;3.60;99.90;;;;;;5088815;28;20048;-78
2022/01/19 05:50:33;;;;;;;56.90;29.50;;;3.60;99.90;;;;;;5089129;28;20048;-76
2022/01/19 05:52:59;;;;;;;53.58;27.65;;;3.60;99.90;;;;;;5089595;28;20082;-78
2022/01/19 05:55:24;;;;;;;61.92;26.00;;;3.70;99.90;;;;;;5088841;28;20080;-77
2022/01/19 05:57:50;;;;;;;60.95;30.60;;;3.70;99.90;;;;;;5070775;28;20036;-77
2022/01/19 06:00:16;;;;;;;53.88;28.10;;;3.60;99.90;;;;;;5070737;28;20051;-77
2022/01/19 06:02:42;;;;;;;57.00;27.50;;;3.60;99.90;;;;;;5088862;28;20474;-78
2022/01/19 06:05:08;;;;;;;54.08;29.85;;;3.70;99.90;;;;;;5071134;28;20422;-76
2022/01/19 06:07:41;;;;;;;50.60;27.13;;;3.60;99.90;;;;;;5071500;28;20043;-77
2022/01/19 06:10:10;;;;;;;51.97;27.70;;;3.60;99.90;;;;;;5089161;28;20040;-77
2022/01/19 06:12:36;;;;;;;50.13;26.38;;;3.70;99.90;;;;;;5070672;28;20044;-77
2022/01/19 06:15:03;;;;;;;58.00;28.27;;;3.70;99.90;;;;;;5088941;28;20062;-76
2022/01/19 06:17:28;;;;;;;55.65;28.42;;;3.50;99.90;;;;;;5069499;28;20040;-77
2022/01/19 06:19:54;;;;;;;61.15;29.52;;;3.70;99.90;;;;;;5070833;28;20136;-77
2022/01/19 06:22:21;;;;;;;54.70;29.10;;;3.70;99.90;;;;;;5088794;28;20030;-77
2022/01/19 06:24:48;;;;;;;59.38;29.63;;;3.70;99.90;;;;;;5088941;28;20040;-77
2022/01/19 06:27:13;;;;;;;55.92;28.77;;;3.70;99.90;;;;;;5070798;28;20118;-72
2022/01/19 06:29:39;;;;;;;55.30;29.48;;;3.60;99.90;;;;;;5070832;28;20077;-75
2022/01/19 06:32:04;;;;;;;53.88;29.08;;;3.60;99.90;;;;;;5088772;28;20040;-75
2022/01/19 06:34:30;;;;;;;61.00;29.92;;;3.80;99.90;;;;;;5087299;28;20513;-75
2022/01/19 06:36:56;;;;;;;50.97;27.05;;;3.70;99.90;;;;;;5088694;28;20487;-76
2022/01/19 06:39:22;;;;;;;52.45;27.27;;;3.70;99.90;;;;;;5070092;28;20043;-78
2022/01/19 06:41:47;;;;;;;53.22;30.27;;;3.70;99.90;;;;;;5070442;28;20052;-77
2022/01/19 06:44:14;;;;;;;51.83;27.45;;;3.80;99.90;;;;;;5070816;28;20066;-76
2022/01/19 06:46:43;;;;;;;56.03;30.63;;;3.80;99.90;;;;;;5088786;28;20056;-77
2022/01/19 06:49:09;;;;;;;52.67;28.92;;;3.70;99.90;;;;;;5087586;28;20049;-77
2022/01/19 06:51:35;;;;;;;59.63;28.10;;;3.70;99.90;;;;;;5070144;28;20044;-75
2022/01/19 06:54:00;;;;;;;55.85;29.13;;;3.70;99.90;;;;;;5070201;28;20589;-76
2022/01/19 06:56:26;;;;;;;62.03;33.90;;;3.70;99.90;;;;;;5087875;28;20036;-76
2022/01/19 06:58:52;;;;;;;69.00;33.03;;;3.70;99.90;;;;;;5088347;28;20119;-77
2022/01/19 07:01:17;;;;;;;57.08;30.55;;;3.80;99.90;;;;;;5069851;28;20097;-76
2022/01/19 07:03:43;;;;;;;58.08;30.75;;;3.70;99.90;;;;;;5069366;28;20498;-77
2022/01/19 07:06:11;;;;;;;59.53;32.42;;;3.70;99.90;;;;;;5069964;28;20469;-77
2022/01/19 07:08:39;;;;;;;57.22;32.30;;;3.70;99.90;;;;;;5086868;28;20044;-77
2022/01/19 07:11:04;;;;;;;52.97;28.52;;;3.70;99.90;;;;;;5088018;28;20126;-75
2022/01/19 07:13:30;;;;;;;73.22;33.80;;;3.70;99.90;;;;;;5069872;28;20070;-75
2022/01/19 07:15:56;;;;;;;51.50;28.27;;;3.70;99.90;;;;;;5087675;28;20157;-75
2022/01/19 07:18:22;;;;;;;54.20;31.35;;;3.70;99.90;;;;;;5068395;28;20040;-75
2022/01/19 07:20:48;;;;;;;59.45;32.95;;;3.80;99.90;;;;;;5069492;28;20568;-75
2022/01/19 07:23:13;;;;;;;60.72;35.67;;;3.80;99.90;;;;;;5087945;28;20047;-72
2022/01/19 07:25:39;;;;;;;55.85;30.58;;;3.80;99.90;;;;;;5088062;28;20048;-74
2022/01/19 07:28:08;;;;;;;65.07;31.13;;;3.80;99.90;;;;;;5069699;28;20249;-75
2022/01/19 07:30:34;;;;;;;59.80;33.90;;;3.80;99.90;;;;;;5087134;28;20442;-74
2022/01/19 07:33:00;;;;;;;59.50;33.30;;;3.80;99.90;;;;;;5086959;28;20123;-75
2022/01/19 07:35:26;;;;;;;54.65;32.20;;;3.70;99.90;;;;;;5087235;28;20193;-75
2022/01/19 07:37:52;;;;;;;56.33;32.05;;;3.80;99.90;;;;;;5069814;28;20081;-76
2022/01/19 07:40:18;;;;;;;56.17;32.88;;;3.80;99.90;;;;;;5087628;28;20051;-75
2022/01/19 07:42:43;;;;;;;60.20;34.55;;;3.80;99.90;;;;;;5087767;28;20035;-71
2022/01/19 07:45:09;;;;;;;59.33;32.75;;;3.70;99.90;;;;;;5069568;28;20063;-75
2022/01/19 07:47:35;;;;;;;71.25;34.95;;;3.80;99.90;;;;;;5086543;28;20048;-75
2022/01/19 07:50:01;;;;;;;72.88;35.88;;;3.80;99.90;;;;;;5069340;28;20051;-75
2022/01/19 07:52:27;;;;;;;59.30;36.70;;;3.80;99.90;;;;;;5069457;28;20066;-75
2022/01/19 07:54:53;;;;;;;66.35;38.42;;;3.80;99.90;;;;;;5087193;28;20389;-75
2022/01/19 07:57:19;;;;;;;67.28;38.95;;;3.80;99.90;;;;;;5069170;28;20163;-76
2022/01/19 07:59:44;;;;;;;58.15;33.28;;;3.80;99.90;;;;;;5086997;28;20119;-75
2022/01/19 08:02:13;;;;;;;65.10;34.67;;;3.80;99.90;;;;;;5087005;28;20040;-75
2022/01/19 08:04:40;;;;;;;66.88;34.05;;;3.90;99.90;;;;;;5069456;28;20113;-75
2022/01/19 08:07:06;;;;;;;82.28;35.30;;;3.90;99.90;;;;;;5087319;28;20043;-77
2022/01/19 08:09:33;;;;;;;61.58;32.15;;;3.90;99.90;;;;;;5069052;28;20446;-76
2022/01/19 08:11:59;;;;;;;64.68;33.40;;;3.90;99.90;;;;;;5087031;28;20047;-75
2022/01/19 08:14:25;;;;;;;58.88;32.67;;;3.90;99.90;;;;;;5086585;28;20044;-75
2022/01/19 08:16:52;;;;;;;59.30;35.75;;;4.00;99.90;;;;;;5086889;28;20040;-75
2022/01/19 08:19:18;;;;;;;60.55;33.05;;;4.00;99.90;;;;;;5086137;28;20123;-76
2022/01/19 08:21:43;;;;;;;61.28;35.13;;;4.00;99.90;;;;;;5072634;28;20135;-72
2022/01/19 08:24:09;;;;;;;58.33;36.78;;;4.00;99.90;;;;;;5091425;28;20044;-77
2022/01/19 08:26:35;;;;;;;71.25;37.55;;;4.00;99.90;;;;;;5072451;28;20058;-76
2022/01/19 08:29:00;;;;;;;60.22;34.20;;;4.00;99.90;;;;;;5091019;28;20522;-77
2022/01/19 08:31:26;;;;;;;68.43;39.15;;;4.00;99.90;;;;;;5090667;28;20115;-76
2022/01/19 08:33:52;;;;;;;73.88;41.05;;;4.10;99.90;;;;;;5072024;28;20060;-75
2022/01/19 08:36:17;;;;;;;66.78;37.72;;;4.10;99.90;;;;;;5072497;28;20048;-76
2022/01/19 08:38:43;;;;;;;60.30;33.78;;;4.10;99.90;;;;;;5072797;28;20040;-75
2022/01/19 08:41:09;;;;;;;76.93;38.17;;;4.20;99.90;;;;;;5091059;28;20055;-75
2022/01/19 08:43:35;;;;;;;74.75;41.55;;;4.20;99.90;;;;;;5072415;28;20075;-77
2022/01/19 08:46:01;;;;;;;67.35;37.63;;;4.30;99.90;;;;;;5090531;28;20083;-76
2022/01/19 08:48:27;;;;;;;63.58;35.97;;;4.30;99.90;;;;;;5071423;28;20072;-75
2022/01/19 08:50:53;;;;;;;63.60;35.80;;;4.30;99.90;;;;;;5090540;28;20402;-76
2022/01/19 08:53:19;;;;;;;75.68;38.45;;;4.40;99.90;;;;;;5090539;28;20028;-76
2022/01/19 08:55:45;;;;;;;59.35;34.00;;;4.40;99.90;;;;;;5072175;28;20046;-75
2022/01/19 08:58:13;;;;;;;70.18;37.60;;;4.40;99.90;;;;;;5072612;28;20035;-77
2022/01/19 09:00:40;;;;;;;79.53;42.33;;;4.40;99.90;;;;;;5072539;28;20096;-75
2022/01/19 09:03:06;;;;;;;65.30;35.20;;;4.40;99.90;;;;;;5071662;28;20410;-76
2022/01/19 09:05:32;;;;;;;72.50;38.47;;;4.40;99.90;;;;;;5071957;28;20047;-76
2022/01/19 09:07:57;;;;;;;60.75;37.75;;;4.40;99.90;;;;;;5090304;28;20040;-76
2022/01/19 09:10:24;;;;;;;63.65;37.13;;;4.40;99.90;;;;;;5072088;28;20113;-76
2022/01/19 09:12:50;;;;;;;66.38;37.55;;;4.40;99.90;;;;;;5090233;28;20048;-76
2022/01/19 09:15:18;;;;;;;59.17;35.20;;;4.50;99.90;;;;;;5071995;28;20460;-76
2022/01/19 09:17:44;;;;;;;66.47;34.20;;;4.50;99.90;;;;;;5071217;28;20040;-73
2022/01/19 09:20:11;;;;;;;65.10;38.72;;;4.50;99.90;;;;;;5072286;28;20090;-75
2022/01/19 09:22:37;;;;;;;66.95;37.70;;;4.50;99.90;;;;;;5089774;28;20048;-75
2022/01/19 09:25:05;;;;;;;67.95;37.88;;;4.50;99.90;;;;;;5071990;28;20389;-74
2022/01/19 09:27:31;;;;;;;68.32;37.78;;;4.40;99.90;;;;;;5071580;28;20040;-75
2022/01/19 09:29:56;;;;;;;58.28;36.50;;;4.50;99.90;;;;;;5071977;28;20535;-77
2022/01/19 09:32:23;;;;;;;65.82;36.47;;;4.50;99.90;;;;;;5069817;28;20089;-76
2022/01/19 09:34:55;;;;;;;62.05;35.15;;;4.50;99.90;;;;;;5071485;28;20039;-76
2022/01/19 09:37:21;;;;;;;66.75;39.35;;;4.50;99.90;;;;;;5071784;28;20044;-76
2022/01/19 09:39:46;;;;;;;69.78;40.63;;;4.50;99.90;;;;;;5071521;28;20048;-76
2022/01/19 09:42:12;;;;;;;77.78;40.65;;;4.50;99.90;;;;;;5072179;28;20478;-77
2022/01/19 09:44:38;;;;;;;65.35;37.45;;;4.50;99.90;;;;;;5089222;28;20063;-76
2022/01/19 09:47:04;;;;;;;71.03;40.10;;;4.50;99.90;;;;;;5070596;28;20067;-75
2022/01/19 09:49:30;;;;;;;73.15;39.92;;;4.60;99.90;;;;;;5089375;28;20037;-76
2022/01/19 09:51:56;;;;;;;74.15;41.33;;;4.60;99.90;;;;;;5089460;28;20043;-76
2022/01/19 09:54:25;;;;;;;63.78;36.72;;;4.60;99.90;;;;;;5089207;28;20256;-76
2022/01/19 09:56:52;;;;;;;81.95;40.13;;;4.60;99.90;;;;;;5089661;28;20469;-76
2022/01/19 09:59:20;;;;;;;68.22;38.75;;;4.50;99.90;;;;;;5070959;28;20051;-76
2022/01/19 10:01:51;;;;;;;73.63;44.33;;;4.60;99.90;;;;;;5070406;28;20052;-76
2022/01/19 10:04:23;;;;;;;67.43;40.78;;;4.60;99.90;;;;;;5070950;28;20065;-76
2022/01/19 10:06:49;;;;;;;74.78;38.35;;;4.60;99.90;;;;;;5071091;28;20051;-75
2022/01/19 10:09:25;;;;;;;66.65;40.25;;;4.50;99.90;;;;;;5070780;28;20224;-75
2022/01/19 10:17:09;;;;;;;63.38;41.25;;;4.60;99.90;;;;;;5087923;28;20064;-75
2022/01/19 10:19:35;;;;;;;67.13;38.80;;;4.60;99.90;;;;;;5070440;28;20036;-77
2022/01/19 10:22:11;;;;;;;73.75;43.88;;;4.60;99.90;;;;;;5070573;28;20073;-76
2022/01/19 10:24:41;;;;;;;63.92;39.35;;;4.60;99.90;;;;;;5088648;28;20414;-75
2022/01/19 10:27:17;;;;;;;67.85;42.05;;;4.60;99.90;;;;;;5070696;28;20514;-75
2022/01/19 10:29:42;;;;;;;64.22;37.97;;;4.60;99.90;;;;;;5054116;28;20498;-75
2022/01/19 10:32:08;;;;;;;66.50;39.75;;;4.70;99.90;;;;;;5069772;28;20185;-76
2022/01/19 10:34:34;;;;;;;83.30;45.92;;;4.60;99.90;;;;;;5088636;28;20044;-76
2022/01/19 10:37:04;;;;;;;77.20;43.70;;;4.70;99.90;;;;;;5088667;28;20055;-76
2022/01/19 10:39:43;;;;;;;70.65;42.83;;;4.70;99.90;;;;;;5088391;28;20407;-75
2022/01/19 10:42:15;;;;;;;68.93;40.60;;;4.70;99.90;;;;;;5088687;28;20050;-76
2022/01/19 10:44:57;;;;;;;74.00;40.42;;;4.70;99.90;;;;;;5070242;28;20058;-75
2022/01/19 10:47:49;;;;;;;73.85;44.00;;;4.80;99.90;;;;;;5069148;28;20123;-75
2022/01/19 10:50:21;;;;;;;76.32;43.10;;;4.80;99.90;;;;;;5087978;28;20044;-75
2022/01/19 10:52:47;;;;;;;67.88;39.67;;;4.80;99.90;;;;;;5088214;28;20071;-76
2022/01/19 10:55:26;;;;;;;80.13;46.60;;;4.90;99.90;;;;;;5070470;28;20072;-75
2022/01/19 10:57:52;;;;;;;87.88;45.67;;;4.90;99.90;;;;;;5070042;28;20048;-75
2022/01/19 11:00:23;;;;;;;77.32;43.85;;;4.90;99.90;;;;;;5069551;28;20580;-76
2022/01/19 11:02:51;;;;;;;73.03;41.03;;;4.80;99.90;;;;;;5086919;28;20445;-75
2022/01/19 11:05:37;;;;;;;65.00;40.65;;;4.80;99.90;;;;;;5069540;28;20036;-76
2022/01/19 11:08:03;;;;;;;75.78;41.58;;;4.90;99.90;;;;;;5069557;28;20097;-76
2022/01/19 11:10:31;;;;;;;71.00;43.15;;;4.90;99.90;;;;;;5087577;28;20440;-76
2022/01/19 11:12:56;;;;;;;70.13;42.13;;;4.90;99.90;;;;;;5088026;28;20085;-75
2022/01/19 11:15:22;;;;;;;67.20;40.08;;;5.00;99.90;;;;;;5069312;28;20390;-75
2022/01/19 11:17:49;;;;;;;64.55;40.95;;;5.00;99.90;;;;;;5068945;28;20047;-75
2022/01/19 11:20:19;;;;;;;69.88;41.63;;;5.10;99.90;;;;;;5087647;28;20032;-75
2022/01/19 11:23:09;;;;;;;76.30;44.85;;;5.00;99.90;;;;;;5069609;28;20044;-75
2022/01/19 11:26:00;;;;;;;74.47;41.83;;;5.10;99.90;;;;;;5052598;28;20349;-75
2022/01/19 11:28:44;;;;;;;77.93;41.70;;;5.10;99.90;;;;;;5069565;28;20055;-76
2022/01/19 11:31:29;;;;;;;81.95;44.10;;;5.30;99.90;;;;;;5069602;28;20056;-77
2022/01/19 11:33:58;;;;;;;76.57;45.63;;;5.40;99.90;;;;;;5052103;28;20051;-76
2022/01/19 11:36:34;;;;;;;71.55;47.50;;;5.50;99.90;;;;;;5087135;28;20032;-75
2022/01/19 11:39:08;;;;;;;77.68;47.85;;;5.50;99.90;;;;;;5087712;28;20490;-74
2022/01/19 11:41:47;;;;;;;75.13;44.58;;;5.60;99.90;;;;;;5087186;28;20087;-75
2022/01/19 11:44:41;;;;;;;71.13;44.47;;;5.70;99.90;;;;;;5069376;28;20147;-75
2022/01/19 11:47:11;;;;;;;60.92;42.15;;;5.80;99.90;;;;;;5047379;28;20099;-74
2022/01/19 11:49:47;;;;;;;69.72;44.40;;;5.70;99.90;;;;;;5066922;28;20375;-75
2022/01/19 11:52:15;;;;;;;65.35;42.50;;;5.70;99.90;;;;;;5049211;28;20140;-76
2022/01/19 11:54:41;;;;;;;65.88;42.33;;;5.70;99.90;;;;;;5066852;28;20083;-75
2022/01/19 11:57:29;;;;;;;71.32;42.50;;;5.70;99.90;;;;;;5066811;28;20055;-75
2022/01/19 12:00:04;;;;;;;68.70;40.63;;;5.80;99.90;;;;;;5032013;28;20509;-74
2022/01/19 12:02:36;;;;;;;63.22;40.15;;;5.80;99.90;;;;;;5048259;28;20294;-75
2022/01/19 12:05:07;;;;;;;67.40;37.92;;;5.80;99.90;;;;;;5049089;28;20047;-75
2022/01/19 12:07:34;;;;;;;60.50;37.42;;;5.80;99.90;;;;;;5048798;28;20119;-74
2022/01/19 12:10:00;;;;;;;62.63;36.22;;;5.70;99.90;;;;;;5049191;28;20127;-74
2022/01/19 12:12:30;;;;;;;60.17;37.25;;;5.70;99.90;;;;;;5066851;28;20120;-75
2022/01/19 12:14:56;;;;;;;55.97;34.60;;;5.70;99.90;;;;;;5067118;28;20072;-75
2022/01/19 12:17:26;;;;;;;62.03;37.70;;;5.70;99.90;;;;;;5065844;28;20048;-73
2022/01/19 12:19:53;;;;;;;58.10;38.03;;;5.70;99.90;;;;;;5066953;28;20036;-74
2022/01/19 12:22:24;;;;;;;55.22;34.95;;;5.60;99.90;;;;;;5066539;28;20078;-74
2022/01/19 12:24:59;;;;;;;55.92;33.03;;;5.60;99.90;;;;;;5066979;28;20051;-74
2022/01/19 12:27:36;;;;;;;62.28;38.58;;;5.70;99.90;;;;;;5031956;28;20036;-75
2022/01/19 12:30:09;;;;;;;54.92;35.40;;;5.80;99.90;;;;;;5066737;28;20048;-75
2022/01/19 12:32:38;;;;;;;60.92;37.30;;;5.80;99.90;;;;;;5047783;28;20040;-75
2022/01/19 12:35:04;;;;;;;60.05;37.35;;;5.70;99.90;;;;;;5031914;28;20048;-75
2022/01/19 12:37:32;;;;;;;60.08;34.78;;;5.70;99.90;;;;;;5066372;28;20032;-75
2022/01/19 12:39:59;;;;;;;66.32;35.17;;;5.60;99.90;;;;;;5048809;28;20078;-75
2022/01/19 12:42:38;;;;;;;51.35;30.98;;;5.70;99.90;;;;;;5049013;28;20080;-75
2022/01/19 12:45:34;;;;;;;55.55;34.10;;;5.70;99.90;;;;;;5072018;28;20144;-75
2022/01/19 12:48:02;;;;;;;54.70;31.35;;;5.80;99.90;;;;;;5067331;28;20036;-76
2022/01/19 12:50:28;;;;;;;61.60;32.42;;;5.90;99.90;;;;;;5086556;28;20547;-75
2022/01/19 12:53:00;;;;;;;45.95;27.15;;;6.00;99.90;;;;;;5069064;28;20048;-76
2022/01/19 12:55:33;;;;;;;49.45;30.13;;;6.00;99.90;;;;;;5051745;28;20710;-76
2022/01/19 12:57:59;;;;;;;73.13;31.90;;;5.90;99.90;;;;;;5086873;28;20044;-75
2022/01/19 13:00:30;;;;;;;39.53;23.63;;;5.90;99.90;;;;;;5086687;28;20047;-76
2022/01/19 13:02:57;;;;;;;42.25;24.10;;;5.90;99.90;;;;;;5085977;28;20036;-76
2022/01/19 13:05:27;;;;;;;43.45;21.38;;;5.80;99.90;;;;;;5086086;28;20555;-75
2022/01/19 13:07:58;;;;;;;47.28;25.80;;;5.80;99.90;;;;;;5088881;28;20528;-76
2022/01/19 13:10:51;;;;;;;36.22;20.77;;;5.80;99.90;;;;;;5071889;28;20044;-75
2022/01/19 13:13:25;;;;;;;35.97;22.90;;;5.80;99.90;;;;;;5071480;28;20100;-73
2022/01/19 13:15:59;;;;;;;38.08;24.38;;;5.80;99.90;;;;;;5072064;28;20051;-75
2022/01/19 13:18:29;;;;;;;57.53;28.27;;;5.80;99.90;;;;;;5088982;28;20040;-75
2022/01/19 13:20:57;;;;;;;43.10;25.48;;;5.80;99.90;;;;;;5090314;28;20093;-75
2022/01/19 13:23:24;;;;;;;51.03;26.88;;;5.80;99.90;;;;;;5071807;28;20244;-75
2022/01/19 13:26:04;;;;;;;43.92;26.25;;;5.80;99.90;;;;;;5071872;28;20048;-75
2022/01/19 13:28:33;;;;;;;46.40;27.40;;;5.70;99.90;;;;;;5072119;28;20442;-75
2022/01/19 13:31:19;;;;;;;46.17;27.45;;;5.70;99.90;;;;;;5089921;28;20051;-76
2022/01/19 13:34:02;;;;;;;49.30;25.80;;;5.60;99.90;;;;;;5071683;28;20043;-75
2022/01/19 13:36:30;;;;;;;43.47;25.35;;;5.70;99.90;;;;;;5089745;28;20048;-76
2022/01/19 13:38:56;;;;;;;57.97;30.65;;;5.70;99.90;;;;;;5089893;28;20119;-76
2022/01/19 13:41:23;;;;;;;45.97;26.05;;;5.60;99.90;;;;;;5089508;28;20044;-75
2022/01/19 13:43:50;;;;;;;54.78;27.92;;;5.50;99.90;;;;;;5071587;28;20071;-76
2022/01/19 13:46:25;;;;;;;40.13;23.88;;;5.50;99.90;;;;;;5070115;28;20457;-76
2022/01/19 13:48:59;;;;;;;45.55;24.73;;;5.50;99.90;;;;;;5089589;28;20134;-77
2022/01/19 13:51:26;;;;;;;49.63;24.83;;;5.50;99.90;;;;;;5089366;28;20044;-77
2022/01/19 13:53:54;;;;;;;39.25;21.50;;;5.50;99.90;;;;;;5071839;28;20051;-76
2022/01/19 13:56:40;;;;;;;44.67;22.10;;;5.40;99.90;;;;;;5071057;28;20172;-76
2022/01/19 13:59:10;;;;;;;51.92;23.92;;;5.40;99.90;;;;;;5071562;28;20435;-76
2022/01/19 14:01:56;;;;;;;48.28;23.10;;;5.40;99.90;;;;;;5088241;28;20036;-75
2022/01/19 14:04:23;;;;;;;47.38;24.65;;;5.40;99.90;;;;;;5088932;28;20036;-75
2022/01/19 14:06:49;;;;;;;49.63;26.67;;;5.40;99.90;;;;;;5089191;28;20487;-77
2022/01/19 14:09:16;;;;;;;54.17;23.42;;;5.30;99.90;;;;;;5089025;28;20055;-75